ADDS METAR Data INFO
IDs: Format: Raw Decoded Include TAF

Data at: 0055 UTC 22 Oct 2017

KWLD 220050Z AUTO 32010KT +TSRA 14/14 A2990 RMK AO2 LTG DSNT ALQDS RAB45 TSE2358B00 P0036 $
KWLD 220039Z AUTO 35012KT 8SM -TSRA SCT035 BKN060 OVC080 14/14 A2988 RMK AO2 PK WND 01028/2357 WSHFT 2343 LTG DSNT ALQDS TSE2358B00 P0030 T01390139
KWLD 220031Z AUTO 36012KT 2 1/2SM TSRA BR BKN035 BKN060 OVC080 14/13 A2986 RMK AO2 PK WND 01028/2357 WSHFT 2343 LTG DSNT ALQDS TSE2358B00 P0030 T01390133
KWLD 220018Z AUTO 34011G27KT 3SM +TSRA BR BKN042 OVC060 14/13 A2987 RMK AO2 PK WND 01028/2357 WSHFT 2343 LTG DSNT ALQDS TSE2358B00 P0017 T01390133
KWLD 220015Z AUTO 35015G27KT 1 3/4SM +TSRA BR BKN042 OVC060 14/13 A2984 RMK AO2 PK WND 01028/2357 WSHFT 2343 VIS 1/2V3 LTG DSNT ALQDS TSE2358B00 P0016 T01390133
KWLD 220006Z AUTO 35021G28KT 2 1/2SM +TSRA BR FEW021 BKN038 OVC065 14/14 A2983 RMK AO2 PK WND 01028/2357 WSHFT 2343 VIS 1/2V5 LTG DSNT ALQDS TSE2358B00 P0007 T01440139
KWLD 212358Z AUTO 01022G28KT 3SM VCTS RA BR SCT028 BKN033 OVC055 15/14 A2982 RMK AO2 PK WND 01028/2357 WSHFT 2343 LTG DSNT ALQDS TSE58 P0001 T01500139
KWLD 212354Z AUTO 01019G28KT 2SM +TSRA BR SCT018 BKN033 OVC048 14/14 A2984 RMK AO2 PK WND 29031/2343 LTG DSNT ALQDS RAB36 TSB20 SLP100 P0038 60038 T01440139 10250 20144 53019
KWLD 212342Z AUTO 31024G31KT 1 3/4SM +TSRA BR FEW014 OVC033 16/14 A2987 RMK AO2 PK WND 32031/2341 LTG DSNT ALQDS RAB36 TSB20 PRESRR P0017 T01560144
KWLD 212320Z AUTO 35014G22KT 10SM TS OVC032 19/14 A2981 RMK AO2 LTG DSNT ALQDS TSB20 T01890139
KWLD 212254Z AUTO 33011KT 10SM BKN037 BKN060 OVC075 21/17 A2980 RMK AO2 LTG DSNT W-N PRESRR SLP082 T02060167
KWLD 212154Z AUTO 19009KT 10SM OVC070 24/18 A2979 RMK AO2 LTG DSNT W-N SLP076 T02390183
KWLD 212054Z AUTO 18010KT 10SM FEW042 OVC070 24/19 A2979 RMK AO2 LTG DSNT W-N SLP076 60000 T02390194 58009
KWLD 211954Z AUTO 18008KT 10SM BKN060 OVC070 23/20 A2979 RMK AO2 SLP080 T02330200
KWLD 211854Z AUTO 20010KT 10SM FEW030 BKN049 OVC055 24/19 A2980 RMK AO2 RAE1758 SLP082 P0000 T02390194
KWLD 211754Z AUTO 17020G26KT 10SM -RA SCT028 OVC041 23/19 A2981 RMK AO2 PK WND 16026/1753 LTG DSNT S RAB49 SLP086 P0000 60000 T02280194 10233 20189 58001
KWLD 211654Z AUTO 18016G23KT 10SM FEW022 SCT030 OVC044 23/19 A2983 RMK AO2 PK WND 17028/1559 LTG DSNT N SLP092 T02280189
KWLD 211554Z AUTO 18020G29KT 10SM OVC020 22/19 A2982 RMK AO2 PK WND 17029/1545 LTG DSNT W SLP087 T02170189
KWLD 211454Z AUTO 17017G27KT 10SM BKN018 BKN023 OVC041 21/18 A2982 RMK AO2 PK WND 17031/1441 SLP088 T02110183 53007
KWLD 211412Z AUTO 17023G30KT 10SM BKN018 BKN041 21/18 A2980 RMK AO2 PK WND 17030/1412 T02060183
KWLD 211354Z AUTO 17016G24KT 10SM FEW016 BKN038 20/18 A2981 RMK AO2 PK WND 17030/1344 SLP084 T02000183
KWLD 211341Z AUTO 16018G27KT 10SM SCT016 BKN038 20/18 A2980 RMK AO2 PK WND 17028/1316 T02000183
KWLD 211254Z AUTO 16017KT 10SM BKN016 19/18 A2980 RMK AO2 SLP081 T01940178
KWLD 211240Z AUTO 16017KT 10SM SCT016 BKN023 19/17 A2980 RMK AO2 T01890172
KWLD 211154Z AUTO 16014KT 10SM FEW033 19/17 A2980 RMK AO2 SLP080 T01890172 10211 20189 55000
KWLD 211054Z AUTO 16018G24KT 10SM FEW020 BKN041 21/18 A2979 RMK AO2 PK WND 16027/1021 SLP076 T02060178
KWLD 211047Z AUTO 16013G25KT 10SM SCT023 BKN042 21/18 A2979 RMK AO2 PK WND 16027/1021 T02060178
KWLD 211015Z AUTO 17016G24KT 10SM BKN026 OVC036 21/18 A2979 RMK AO2 T02060178
KWLD 210954Z AUTO 17016G22KT 10SM SCT023 BKN030 OVC036 21/18 A2980 RMK AO2 PK WND 17026/0918 SLP080 T02060178
KWLD 210946Z AUTO 17016G22KT 10SM SCT023 BKN029 OVC036 21/18 A2980 RMK AO2 PK WND 17026/0918 T02060178
KWLD 210854Z AUTO 17019G25KT 10SM FEW022 OVC031 21/18 A2980 RMK AO2 PK WND 17029/0843 SLP079 T02060178 58008
KWLD 210844Z AUTO 17023G29KT 10SM SCT024 OVC032 21/18 A2980 RMK AO2 PK WND 17029/0843 T02060178
KWLD 210754Z AUTO 16015G22KT 10SM OVC021 20/17 A2981 RMK AO2 SLP084 T02000172
KWLD 210740Z AUTO 17018G23KT 10SM BKN021 BKN025 20/17 A2981 RMK AO2 T02000172
KWLD 210654Z AUTO 16018G26KT 10SM CLR 20/17 A2981 RMK AO2 PK WND 17028/0623 SLP085 T02000172
KWLD 210554Z AUTO 16016KT 10SM CLR 20/17 A2982 RMK AO2 PK WND 16026/0544 SLP088 T02000172 10233 20200 402500139 58001
KWLD 210454Z AUTO 16017G23KT 10SM FEW036 21/17 A2983 RMK AO2 PK WND 17027/0411 SLP093 T02060172
KWLD 210354Z AUTO 17019KT 10SM SCT031 SCT035 BKN049 21/17 A2984 RMK AO2 SLP094 T02110172
KWLD 210254Z AUTO 16018G22KT 10SM BKN047 22/17 A2983 RMK AO2 PK WND 16026/0219 SLP091 T02170167 53003
KWLD 210154Z AUTO 16016G22KT 10SM FEW040 22/17 A2982 RMK AO2 SLP092 T02220167
KWLD 210054Z AUTO 16016G23KT 10SM BKN045 23/16 A2981 RMK AO2 SLP088 T02280156
KWLD 202354Z AUTO 16018G27KT 10SM BKN048 23/15 A2982 RMK AO2 PK WND 17027/2354 SLP089 T02330150 10250 20233 56011
KWLD 202254Z AUTO 17020G26KT 10SM CLR 24/13 A2983 RMK AO2 PK WND 17034/2201 SLP092 T02390128
KWLD 202154Z AUTO 16023G30KT 10SM CLR 25/14 A2983 RMK AO2 PK WND 16031/2131 SLP093 T02500144
KWLD 202054Z AUTO 16020G30KT 10SM CLR 25/15 A2985 RMK AO2 PK WND 16031/2044 SLP100 T02500150 56031
KWLD 201954Z AUTO 17022G30KT 10SM CLR 24/15 A2988 RMK AO2 PK WND 16032/1855 SLP109 T02440150
KWLD 201854Z AUTO 16022G31KT 10SM CLR 24/16 A2990 RMK AO2 PK WND 17031/1849 SLP117 T02440156
KWLD 201754Z AUTO 16021G31KT 10SM CLR 24/16 A2995 RMK AO2 PK WND 16033/1744 SLP132 T02390161 10239 20139 58028
KWLD 201654Z AUTO 17018G24KT 10SM BKN048 23/16 A2999 RMK AO2 PK WND 16029/1617 SLP146 T02280161
KWLD 201554Z AUTO 17018G23KT 10SM CLR 21/16 A3001 RMK AO2 SLP154 T02110161
KWLD 201454Z AUTO 17012G21KT 10SM CLR 18/15 A3003 RMK AO2 SLP164 T01830150 56007
KWLD 201354Z AUTO 15010KT 10SM SCT049 16/13 A3003 RMK AO2 SLP166 T01560133